createdAt,value
2023-05-22T17:28:31.238Z,7.47
2023-05-22T17:30:59.145Z,6.97
2023-05-22T17:33:27.112Z,6.32
2023-05-22T17:35:55.018Z,6.13
2023-05-22T17:38:22.922Z,5.80
2023-05-22T17:40:51.827Z,5.38
2023-05-22T17:43:20.031Z,5.38
2023-05-22T17:45:50.747Z,4.57
2023-05-22T17:48:23.366Z,4.05
2023-05-22T17:50:52.085Z,4.68
2023-05-22T17:53:20.852Z,4.60
2023-05-22T17:55:52.220Z,3.70
2023-05-22T17:58:21.161Z,4.40
2023-05-22T18:00:50.593Z,4.38
2023-05-22T18:03:20.761Z,4.53
2023-05-22T18:05:48.934Z,4.43
2023-05-22T18:08:17.279Z,3.58
2023-05-22T18:10:45.369Z,3.55
2023-05-22T18:13:13.354Z,3.60
2023-05-22T18:15:41.466Z,3.40
2023-05-22T18:18:13.127Z,2.95
2023-05-22T18:20:41.401Z,3.03
2023-05-22T18:23:09.532Z,2.60
2023-05-22T18:25:37.444Z,2.80
2023-05-22T18:28:05.420Z,2.55
2023-05-22T18:30:33.366Z,2.75
2023-05-22T18:33:01.857Z,2.38
2023-05-22T18:35:31.275Z,3.00
2023-05-22T18:38:00.196Z,2.90
2023-05-22T18:40:28.398Z,2.15
2023-05-22T18:42:56.353Z,2.65
2023-05-22T18:45:24.451Z,2.50
2023-05-22T18:47:52.416Z,2.05
2023-05-22T18:50:22.846Z,2.30
2023-05-22T18:52:52.998Z,2.20
2023-05-22T18:55:22.049Z,2.00
2023-05-22T18:57:49.977Z,2.25
2023-05-22T19:00:18.373Z,2.00
2023-05-22T19:02:47.258Z,2.42
2023-05-22T19:05:15.502Z,1.60
2023-05-22T19:07:43.395Z,2.58
2023-05-22T19:10:12.890Z,3.08
2023-05-22T19:12:40.881Z,2.30
2023-05-22T19:15:09.936Z,2.67
2023-05-22T19:17:37.902Z,2.58
2023-05-22T19:20:07.575Z,1.83
2023-05-22T19:22:36.054Z,2.10
2023-05-22T19:25:04.126Z,2.72
2023-05-22T19:27:33.377Z,1.98
2023-05-22T19:30:01.370Z,2.17
2023-05-22T19:32:30.659Z,1.67
2023-05-22T19:34:58.659Z,1.80
2023-05-22T19:37:26.576Z,1.67
2023-05-22T19:39:55.055Z,2.17
2023-05-22T19:42:23.039Z,2.20
2023-05-22T19:44:52.303Z,1.80
2023-05-22T19:47:20.200Z,1.98
2023-05-22T19:49:48.125Z,1.67
2023-05-22T19:52:16.053Z,1.30
2023-05-22T19:54:43.978Z,1.42
2023-05-22T19:57:12.036Z,1.67
2023-05-22T19:59:39.950Z,1.55
2023-05-22T20:02:09.563Z,1.70
2023-05-22T20:04:39.381Z,1.40
2023-05-22T20:07:07.538Z,1.55
2023-05-22T20:09:35.462Z,1.85
2023-05-22T20:12:03.415Z,1.45
2023-05-22T20:14:31.354Z,1.40
2023-05-22T20:16:59.866Z,1.42
2023-05-22T20:19:29.214Z,1.20
2023-05-22T20:21:58.164Z,0.95
2023-05-22T20:24:26.282Z,3.00
2023-05-22T20:26:54.563Z,2.65
2023-05-22T20:29:22.863Z,3.97
2023-05-22T20:31:54.536Z,5.57
2023-05-22T20:34:23.444Z,6.43
2023-05-22T20:36:54.730Z,6.38
2023-05-22T20:39:23.438Z,11.27
2023-05-22T20:41:51.486Z,9.05
2023-05-22T20:44:23.442Z,10.40
2023-05-22T20:46:51.718Z,11.93
2023-05-22T20:49:20.800Z,13.57
2023-05-22T20:51:50.007Z,16.30
2023-05-22T20:54:19.382Z,17.80
2023-05-22T20:56:47.366Z,20.67
2023-05-22T20:59:15.348Z,21.95
2023-05-22T21:01:43.910Z,22.70
2023-05-22T21:04:11.935Z,25.02
2023-05-22T21:06:40.397Z,25.90
2023-05-22T21:09:08.557Z,27.67
2023-05-22T21:11:37.823Z,25.17
2023-05-22T21:14:06.896Z,24.40
2023-05-22T21:16:36.385Z,25.98
2023-05-22T21:19:06.670Z,25.50
2023-05-22T21:21:36.149Z,28.60
2023-05-22T21:24:04.152Z,30.27
2023-05-22T21:26:32.148Z,30.10
2023-05-22T21:29:02.578Z,31.38
2023-05-22T21:31:31.499Z,30.83
2023-05-22T21:34:00.139Z,31.13
2023-05-22T21:36:28.047Z,32.13
2023-05-22T21:38:57.585Z,31.88
2023-05-22T21:41:25.977Z,32.53
2023-05-22T21:43:53.904Z,34.38
2023-05-22T21:46:23.475Z,34.95
2023-05-22T21:48:51.417Z,36.00
2023-05-22T21:51:19.320Z,36.33
2023-05-22T21:53:47.867Z,35.92
2023-05-22T21:56:15.799Z,38.13
2023-05-22T21:58:43.725Z,37.20
2023-05-22T22:01:11.716Z,37.55
2023-05-22T22:03:41.173Z,39.03
2023-05-22T22:06:09.386Z,36.72
2023-05-22T22:08:37.336Z,34.65
2023-05-22T22:11:05.399Z,34.95
2023-05-22T22:13:33.418Z,36.10
2023-05-22T22:16:01.382Z,37.88
2023-05-22T22:18:32.281Z,39.28
2023-05-22T22:21:02.241Z,38.13
2023-05-22T22:23:30.380Z,38.97
2023-05-22T22:25:58.275Z,38.80
2023-05-22T22:28:26.185Z,41.13
2023-05-22T22:30:54.920Z,38.47
2023-05-22T22:33:23.463Z,39.15
2023-05-22T22:35:51.553Z,42.30
2023-05-22T22:38:21.073Z,42.88
2023-05-22T22:40:48.961Z,40.40
2023-05-22T22:43:16.838Z,41.45
2023-05-22T22:45:44.783Z,40.05
2023-05-22T22:48:12.687Z,40.67
2023-05-22T22:50:41.180Z,39.58
2023-05-22T22:53:09.260Z,40.08
2023-05-22T22:55:38.930Z,40.90
2023-05-22T22:58:07.840Z,41.20
2023-05-22T23:00:36.533Z,42.67
2023-05-22T23:03:04.570Z,38.80
